sensor_id;sensor_type;location;lat;lon;timestamp;P1;durP1;ratioP1;P2;durP2;ratioP2
44304;SDS011;30019;50.576;8.568;2023-05-07T00:10:36;33.22;;;30.77;;
44304;SDS011;30019;50.576;8.568;2023-05-07T00:13:02;31.00;;;29.13;;
44304;SDS011;30019;50.576;8.568;2023-05-07T00:15:27;36.03;;;33.65;;
44304;SDS011;30019;50.576;8.568;2023-05-07T00:17:53;31.67;;;29.77;;
44304;SDS011;30019;50.576;8.568;2023-05-07T00:20:19;34.35;;;32.05;;
44304;SDS011;30019;50.576;8.568;2023-05-07T00:22:44;38.83;;;36.42;;
44304;SDS011;30019;50.576;8.568;2023-05-07T00:25:10;37.53;;;34.17;;
44304;SDS011;30019;50.576;8.568;2023-05-07T00:27:35;32.10;;;30.17;;
44304;SDS011;30019;50.576;8.568;2023-05-07T00:30:01;35.47;;;33.25;;
44304;SDS011;30019;50.576;8.568;2023-05-07T00:32:26;30.12;;;28.25;;
44304;SDS011;30019;50.576;8.568;2023-05-07T00:34:52;32.47;;;30.50;;
44304;SDS011;30019;50.576;8.568;2023-05-07T00:37:17;34.80;;;32.70;;
44304;SDS011;30019;50.576;8.568;2023-05-07T00:39:43;35.50;;;33.15;;
44304;SDS011;30019;50.576;8.568;2023-05-07T00:42:08;39.03;;;36.25;;
44304;SDS011;30019;50.576;8.568;2023-05-07T00:44:34;32.88;;;30.73;;
44304;SDS011;30019;50.576;8.568;2023-05-07T00:47:01;35.65;;;33.25;;
44304;SDS011;30019;50.576;8.568;2023-05-07T00:49:35;32.38;;;30.20;;
44304;SDS011;30019;50.576;8.568;2023-05-07T00:52:03;36.90;;;34.63;;
44304;SDS011;30019;50.576;8.568;2023-05-07T00:54:30;40.53;;;38.00;;
44304;SDS011;30019;50.576;8.568;2023-05-07T01:01:48;33.10;;;30.80;;
44304;SDS011;30019;50.576;8.568;2023-05-07T01:06:39;36.20;;;33.93;;
44304;SDS011;30019;50.576;8.568;2023-05-07T01:09:05;37.28;;;34.97;;
44304;SDS011;30019;50.576;8.568;2023-05-07T01:11:31;38.03;;;35.60;;
44304;SDS011;30019;50.576;8.568;2023-05-07T01:13:57;34.40;;;32.10;;
44304;SDS011;30019;50.576;8.568;2023-05-07T01:16:25;32.70;;;30.70;;
44304;SDS011;30019;50.576;8.568;2023-05-07T01:21:16;30.03;;;28.07;;
44304;SDS011;30019;50.576;8.568;2023-05-07T01:23:42;32.30;;;30.40;;
44304;SDS011;30019;50.576;8.568;2023-05-07T01:31:01;30.30;;;28.43;;
44304;SDS011;30019;50.576;8.568;2023-05-07T01:40:49;41.40;;;38.70;;
44304;SDS011;30019;50.576;8.568;2023-05-07T01:45:40;32.47;;;30.40;;
44304;SDS011;30019;50.576;8.568;2023-05-07T02:02:41;34.00;;;32.00;;
44304;SDS011;30019;50.576;8.568;2023-05-07T02:05:06;31.75;;;29.65;;
44304;SDS011;30019;50.576;8.568;2023-05-07T02:09:58;39.83;;;36.70;;
44304;SDS011;30019;50.576;8.568;2023-05-07T02:12:23;36.60;;;34.03;;
44304;SDS011;30019;50.576;8.568;2023-05-07T02:14:49;34.70;;;32.50;;
44304;SDS011;30019;50.576;8.568;2023-05-07T02:17:15;36.50;;;34.05;;
44304;SDS011;30019;50.576;8.568;2023-05-07T02:19:40;35.42;;;32.97;;
44304;SDS011;30019;50.576;8.568;2023-05-07T02:22:06;38.55;;;36.00;;
44304;SDS011;30019;50.576;8.568;2023-05-07T02:24:32;32.05;;;30.00;;
44304;SDS011;30019;50.576;8.568;2023-05-07T02:26:58;35.28;;;32.92;;
44304;SDS011;30019;50.576;8.568;2023-05-07T02:29:23;33.75;;;31.55;;
44304;SDS011;30019;50.576;8.568;2023-05-07T02:31:49;33.55;;;31.42;;
44304;SDS011;30019;50.576;8.568;2023-05-07T03:17:55;33.25;;;31.25;;
44304;SDS011;30019;50.576;8.568;2023-05-07T03:32:31;32.17;;;30.05;;
44304;SDS011;30019;50.576;8.568;2023-05-07T03:42:13;35.35;;;32.88;;
44304;SDS011;30019;50.576;8.568;2023-05-07T03:44:38;33.88;;;31.62;;
44304;SDS011;30019;50.576;8.568;2023-05-07T03:47:04;33.22;;;31.10;;
44304;SDS011;30019;50.576;8.568;2023-05-07T03:49:29;33.60;;;31.40;;
44304;SDS011;30019;50.576;8.568;2023-05-07T03:59:12;38.80;;;35.50;;
44304;SDS011;30019;50.576;8.568;2023-05-07T04:06:29;38.75;;;36.35;;
44304;SDS011;30019;50.576;8.568;2023-05-07T04:08:55;44.22;;;41.37;;
44304;SDS011;30019;50.576;8.568;2023-05-07T04:11:20;60.88;;;57.00;;
44304;SDS011;30019;50.576;8.568;2023-05-07T04:13:46;42.62;;;40.08;;
44304;SDS011;30019;50.576;8.568;2023-05-07T04:16:12;40.93;;;38.30;;
44304;SDS011;30019;50.576;8.568;2023-05-07T04:18:37;46.08;;;42.17;;
44304;SDS011;30019;50.576;8.568;2023-05-07T04:21:03;43.25;;;40.42;;
44304;SDS011;30019;50.576;8.568;2023-05-07T04:23:29;42.15;;;39.30;;
44304;SDS011;30019;50.576;8.568;2023-05-07T04:25:55;42.35;;;39.15;;
44304;SDS011;30019;50.576;8.568;2023-05-07T04:28:21;42.88;;;39.85;;
44304;SDS011;30019;50.576;8.568;2023-05-07T04:30:46;44.60;;;41.67;;
44304;SDS011;30019;50.576;8.568;2023-05-07T04:33:13;41.97;;;38.95;;
44304;SDS011;30019;50.576;8.568;2023-05-07T04:35:41;47.55;;;44.08;;
44304;SDS011;30019;50.576;8.568;2023-05-07T04:38:07;43.72;;;40.80;;
44304;SDS011;30019;50.576;8.568;2023-05-07T04:40:32;48.30;;;43.85;;
44304;SDS011;30019;50.576;8.568;2023-05-07T04:43:00;44.83;;;41.67;;
44304;SDS011;30019;50.576;8.568;2023-05-07T04:45:26;53.53;;;49.75;;
44304;SDS011;30019;50.576;8.568;2023-05-07T04:47:52;45.50;;;42.38;;
44304;SDS011;30019;50.576;8.568;2023-05-07T04:50:17;41.65;;;38.47;;
44304;SDS011;30019;50.576;8.568;2023-05-07T04:52:44;38.80;;;36.20;;
44304;SDS011;30019;50.576;8.568;2023-05-07T04:55:10;41.80;;;38.97;;
44304;SDS011;30019;50.576;8.568;2023-05-07T04:57:35;43.97;;;40.67;;
44304;SDS011;30019;50.576;8.568;2023-05-07T05:04:54;49.78;;;46.20;;
44304;SDS011;30019;50.576;8.568;2023-05-07T05:07:20;47.90;;;44.03;;
44304;SDS011;30019;50.576;8.568;2023-05-07T05:12:11;44.28;;;40.38;;
44304;SDS011;30019;50.576;8.568;2023-05-07T05:14:36;42.10;;;39.03;;
44304;SDS011;30019;50.576;8.568;2023-05-07T07:01:24;42.50;;;37.97;;
